Terminal Aerodrome Forecast
Issued by NWS Chicago, IL

Home | Current Version | Previous Version | Text Only | Print | Product List | Glossary Off
Versions: 1 2 3 4 5 6 7 8 9 10 11 12 13 14 15 16 17 18 19 20 21 22 23 24 25 26 27 28 29 30 31

000
FTUS43 KLOT 261100
TAFRFD
TAF
KRFD 261128Z 2612/2712 20007KT P6SM OVC035
      TEMPO 2612/2615 OVC025
     FM261800 26008KT P6SM SCT040 BKN100
     FM270100 VRB03KT 6SM BR BKN100
     FM270600 VRB02KT 4SM BR FEW010 BKN100=

USA.gov is the U.S. government's official web portal to all federal, state and local government web resources and services.